Time;durP1;ratioP1;P1;durP2;ratioP2;P2;SDS_P1;SDS_P2;PMS_P1;PMS_P2;Temp;Humidity;BMP_temperature;BMP_pressure;BME280_temperature;BME280_humidity;BME280_pressure;Samples;Min_cycle;Max_cycle;Signal;HPM_P1;HPM_P2
2021/04/05 00:02:45;;;;;;;2.35;0.82;;;20.50;45.50;;;;;;7711306;23;20008;-65
2021/04/05 00:05:45;;;;;;;1.90;0.80;;;20.50;45.60;;;;;;7713424;23;20005;-65
2021/04/05 00:08:46;;;;;;;0.65;0.65;;;20.50;45.50;;;;;;7711708;23;20013;-65
2021/04/05 00:11:46;;;;;;;1.80;1.20;;;20.50;45.60;;;;;;7713779;23;20009;-65
2021/04/05 00:14:47;;;;;;;2.00;1.00;;;20.50;45.50;;;;;;7713360;23;20097;-65
2021/04/05 00:17:48;;;;;;;0.85;0.77;;;20.50;45.30;;;;;;7713167;23;20552;-65
2021/04/05 00:20:52;;;;;;;1.10;0.80;;;20.50;45.40;;;;;;7713612;23;20387;-65
2021/04/05 00:23:53;;;;;;;1.40;0.95;;;20.50;45.50;;;;;;7713655;23;20008;-66
2021/04/05 00:26:53;;;;;;;1.08;0.80;;;20.50;45.60;;;;;;7713416;23;20328;-65
2021/04/05 00:29:54;;;;;;;1.65;0.80;;;20.50;45.30;;;;;;7713199;23;20012;-65
2021/04/05 00:32:55;;;;;;;1.20;0.98;;;20.50;45.50;;;;;;7713445;23;20051;-65
2021/04/05 00:35:56;;;;;;;1.00;0.75;;;20.50;46.10;;;;;;7713569;23;20003;-65
2021/04/05 00:38:56;;;;;;;1.63;0.90;;;20.50;45.60;;;;;;7711635;23;20027;-65
2021/04/05 00:41:58;;;;;;;0.70;0.60;;;20.50;45.40;;;;;;7713381;23;20068;-65
2021/04/05 00:44:59;;;;;;;0.68;0.65;;;20.50;45.50;;;;;;7713118;23;20005;-65
2021/04/05 00:48:00;;;;;;;1.70;0.80;;;20.50;45.60;;;;;;7713212;23;20019;-65
2021/04/05 00:51:07;;;;;;;1.13;0.65;;;20.50;45.60;;;;;;7713254;23;20024;-65
2021/04/05 00:54:07;;;;;;;1.67;0.75;;;20.50;45.50;;;;;;7713534;23;20005;-65
2021/04/05 00:57:08;;;;;;;1.38;0.80;;;20.50;45.70;;;;;;7713234;23;20015;-65
2021/04/05 01:00:14;;;;;;;2.38;0.80;;;20.50;45.60;;;;;;7712623;23;20027;-65
2021/04/05 01:03:25;;;;;;;1.73;0.88;;;20.50;45.60;;;;;;7713234;23;20079;-65
2021/04/05 01:06:28;;;;;;;1.33;0.90;;;20.50;45.60;;;;;;7713176;23;20075;-65
2021/04/05 01:09:29;;;;;;;0.98;0.80;;;20.50;45.60;;;;;;7712784;23;20503;-65
2021/04/05 01:12:29;;;;;;;0.73;0.55;;;20.50;45.80;;;;;;7713285;23;20080;-65
2021/04/05 01:15:29;;;;;;;0.95;0.73;;;20.50;45.60;;;;;;7712970;23;20008;-65
2021/04/05 01:18:31;;;;;;;1.13;0.90;;;20.50;45.60;;;;;;7713489;23;20386;-65
2021/04/05 01:21:32;;;;;;;1.20;0.98;;;20.50;45.60;;;;;;7712920;23;20011;-65
2021/04/05 01:24:33;;;;;;;0.90;0.75;;;20.50;45.60;;;;;;7712884;23;20000;-65
2021/04/05 01:27:34;;;;;;;1.85;0.90;;;20.50;45.50;;;;;;7713075;23;20325;-65
2021/04/05 01:30:39;;;;;;;2.83;0.95;;;20.50;45.50;;;;;;7712755;23;20035;-65
2021/04/05 01:33:42;;;;;;;1.05;0.90;;;20.50;45.60;;;;;;7712854;23;20032;-65
2021/04/05 01:36:43;;;;;;;0.90;0.70;;;20.50;45.60;;;;;;7712908;23;20005;-65
2021/04/05 01:39:43;;;;;;;0.95;0.60;;;20.50;45.60;;;;;;7712608;23;20001;-65
2021/04/05 01:42:44;;;;;;;0.90;0.80;;;20.50;45.70;;;;;;7713211;23;20452;-65
2021/04/05 01:45:44;;;;;;;0.98;0.70;;;20.50;45.60;;;;;;7712767;23;20008;-65
2021/04/05 01:48:45;;;;;;;0.98;0.70;;;20.50;45.70;;;;;;7712646;23;20023;-65
2021/04/05 01:51:46;;;;;;;1.42;0.80;;;20.50;45.60;;;;;;7712594;23;20008;-65
2021/04/05 01:54:46;;;;;;;0.90;0.70;;;20.50;45.60;;;;;;7712448;23;20024;-65
2021/04/05 01:57:49;;;;;;;1.70;0.80;;;20.50;45.60;;;;;;7712734;23;20016;-65
2021/04/05 02:00:50;;;;;;;1.00;0.80;;;20.50;45.60;;;;;;7712279;23;20012;-65
2021/04/05 02:03:54;;;;;;;1.67;0.80;;;20.50;46.40;;;;;;7712642;23;20000;-65
2021/04/05 02:06:55;;;;;;;1.67;0.80;;;20.50;45.60;;;;;;7712151;23;20019;-65
2021/04/05 02:09:55;;;;;;;1.08;0.70;;;20.50;45.80;;;;;;7711936;23;20013;-64
2021/04/05 02:12:57;;;;;;;1.10;0.90;;;20.40;45.40;;;;;;7712352;23;20016;-65
2021/04/05 02:15:58;;;;;;;1.33;0.68;;;20.50;45.50;;;;;;7712247;23;20000;-66
2021/04/05 02:19:03;;;;;;;1.10;0.70;;;20.50;45.60;;;;;;7712107;23;20028;-65
2021/04/05 02:22:04;;;;;;;1.45;0.77;;;20.50;45.70;;;;;;7712092;23;20005;-65
2021/04/05 02:25:07;;;;;;;3.83;0.68;;;20.50;45.60;;;;;;7712251;23;20008;-65
2021/04/05 02:28:07;;;;;;;1.13;0.70;;;20.50;45.60;;;;;;7712119;23;20001;-65
2021/04/05 02:31:13;;;;;;;0.95;0.70;;;20.50;45.60;;;;;;7712193;23;20019;-65
2021/04/05 02:34:14;;;;;;;1.10;0.80;;;20.50;45.70;;;;;;7712106;23;20005;-65
2021/04/05 02:37:15;;;;;;;1.80;0.70;;;20.40;45.60;;;;;;7712096;23;20015;-65
2021/04/05 02:40:16;;;;;;;0.98;0.70;;;20.50;45.60;;;;;;7711975;23;20561;-65
2021/04/05 02:43:18;;;;;;;1.33;0.90;;;20.50;45.60;;;;;;7712115;23;20084;-65
2021/04/05 02:46:22;;;;;;;1.95;0.80;;;20.50;45.60;;;;;;7711910;23;20004;-65
2021/04/05 02:49:23;;;;;;;2.40;0.80;;;20.50;45.60;;;;;;7711720;23;20023;-65
2021/04/05 02:52:24;;;;;;;0.70;0.60;;;20.50;45.70;;;;;;7711802;23;20329;-65
2021/04/05 02:55:25;;;;;;;1.42;0.80;;;20.40;45.60;;;;;;7711929;23;20004;-65
2021/04/05 02:58:26;;;;;;;1.45;0.88;;;20.40;45.60;;;;;;7711948;23;20008;-65
2021/04/05 03:01:27;;;;;;;0.80;0.68;;;20.50;45.70;;;;;;7712460;23;20008;-65
2021/04/05 03:04:30;;;;;;;1.35;0.90;;;20.40;45.60;;;;;;7712198;23;20459;-65
2021/04/05 03:07:31;;;;;;;0.82;0.77;;;20.50;45.60;;;;;;7711380;23;20027;-64
2021/04/05 03:10:35;;;;;;;0.85;0.70;;;20.50;45.70;;;;;;7711797;23;20012;-65
2021/04/05 03:13:37;;;;;;;1.57;0.87;;;20.40;45.60;;;;;;7711675;23;20657;-65
2021/04/05 03:16:40;;;;;;;0.82;0.80;;;20.40;45.60;;;;;;7711733;23;20232;-65
2021/04/05 03:19:42;;;;;;;0.90;0.80;;;20.50;45.60;;;;;;7711768;23;20008;-65
2021/04/05 03:22:44;;;;;;;0.95;0.60;;;20.40;45.50;;;;;;7712707;23;20015;-65
2021/04/05 03:25:44;;;;;;;1.13;0.70;;;20.40;45.60;;;;;;7714573;23;20101;-65
2021/04/05 03:28:45;;;;;;;0.73;0.70;;;20.50;45.60;;;;;;7713895;23;20007;-65
2021/04/05 03:31:47;;;;;;;2.05;0.93;;;20.50;45.60;;;;;;7714444;23;20363;-65
2021/04/05 03:35:00;;;;;;;1.55;0.90;;;20.40;45.50;;;;;;7714186;23;20001;-66
2021/04/05 03:38:03;;;;;;;1.25;0.85;;;20.40;45.50;;;;;;7714313;23;20012;-65
2021/04/05 03:41:09;;;;;;;1.20;0.70;;;20.50;45.60;;;;;;7714127;23;20024;-65
2021/04/05 03:44:47;;;;;;;2.13;1.15;;;20.40;45.50;;;;;;7712787;23;20011;-65
2021/04/05 03:48:04;;;;;;;1.35;0.90;;;20.50;45.60;;;;;;7713489;23;20007;-65
2021/04/05 03:51:17;;;;;;;1.50;1.10;;;20.40;45.50;;;;;;7714047;23;20015;-65
2021/04/05 03:54:20;;;;;;;1.30;0.90;;;20.40;45.50;;;;;;7713910;23;20087;-66
2021/04/05 03:57:25;;;;;;;0.93;0.80;;;20.40;45.40;;;;;;7713802;23;20009;-65
2021/04/05 04:00:29;;;;;;;1.45;0.80;;;20.40;45.50;;;;;;7713975;23;20005;-65
2021/04/05 04:03:43;;;;;;;0.82;0.68;;;20.40;45.50;;;;;;7713757;23;20047;-65
2021/04/05 04:06:57;;;;;;;1.25;0.82;;;20.40;45.40;;;;;;7713961;23;20495;-66
2021/04/05 04:09:58;;;;;;;2.47;1.08;;;20.40;45.50;;;;;;7713489;23;20016;-65
2021/04/05 04:13:03;;;;;;;1.20;0.90;;;20.40;45.60;;;;;;7713840;23;20004;-66
2021/04/05 04:16:05;;;;;;;3.10;1.00;;;20.40;45.40;;;;;;7712243;23;20032;-66
2021/04/05 04:19:07;;;;;;;0.95;0.85;;;20.40;45.50;;;;;;7712073;23;20495;-65
2021/04/05 04:22:08;;;;;;;1.77;1.00;;;20.40;45.70;;;;;;7713771;23;20098;-65
2021/04/05 04:25:09;;;;;;;1.23;0.82;;;20.40;45.50;;;;;;7713659;23;20079;-65
2021/04/05 04:28:16;;;;;;;1.73;1.10;;;20.40;45.40;;;;;;7713361;23;20500;-65
2021/04/05 04:31:20;;;;;;;1.85;1.00;;;20.40;45.40;;;;;;7713581;23;20016;-65
2021/04/05 04:34:22;;;;;;;3.72;1.20;;;20.40;45.50;;;;;;7713942;23;20078;-65
2021/04/05 04:37:23;;;;;;;1.38;0.95;;;20.40;45.40;;;;;;7713429;23;20054;-65
2021/04/05 04:40:30;;;;;;;3.45;1.00;;;20.40;45.40;;;;;;7713190;23;20001;-64
2021/04/05 04:43:31;;;;;;;1.65;0.95;;;20.40;45.50;;;;;;7713243;23;20054;-65
2021/04/05 04:46:32;;;;;;;1.30;1.10;;;20.40;45.60;;;;;;7713591;23;20004;-65
2021/04/05 04:49:33;;;;;;;1.35;0.82;;;20.40;45.50;;;;;;7712708;23;20020;-65
2021/04/05 04:52:33;;;;;;;1.77;1.25;;;20.40;45.50;;;;;;7713319;23;20063;-65
2021/04/05 04:55:35;;;;;;;1.50;1.10;;;20.40;45.50;;;;;;7713322;23;20031;-65
2021/04/05 04:58:36;;;;;;;2.30;1.38;;;20.40;45.40;;;;;;7713030;23;20008;-65
2021/04/05 05:01:41;;;;;;;2.38;1.27;;;20.40;45.40;;;;;;7713742;23;20359;-65
2021/04/05 05:04:43;;;;;;;1.48;1.08;;;20.40;45.50;;;;;;7713072;23;20000;-65
2021/04/05 05:07:44;;;;;;;1.40;1.10;;;20.40;45.30;;;;;;7713030;23;20091;-65
2021/04/05 05:10:46;;;;;;;1.70;1.40;;;20.40;45.40;;;;;;7712724;23;20735;-65
2021/04/05 05:13:47;;;;;;;1.23;1.08;;;20.40;45.30;;;;;;7711625;23;20028;-64
2021/04/05 05:16:48;;;;;;;2.58;1.30;;;20.40;45.40;;;;;;7712909;23;20075;-65
2021/04/05 05:19:51;;;;;;;1.80;1.35;;;20.40;45.30;;;;;;7712320;23;20009;-65
2021/04/05 05:22:58;;;;;;;2.40;1.48;;;20.40;45.40;;;;;;7713118;23;20091;-65
2021/04/05 05:26:00;;;;;;;2.38;1.40;;;20.40;45.40;;;;;;7712879;23;20005;-65
2021/04/05 05:29:06;;;;;;;1.70;1.40;;;20.40;45.30;;;;;;7712461;23;20028;-65
2021/04/05 05:32:08;;;;;;;1.40;1.20;;;20.40;45.30;;;;;;7713019;23;20029;-63
2021/04/05 05:35:11;;;;;;;2.00;1.30;;;20.40;45.30;;;;;;7713158;23;20000;-65
2021/04/05 05:38:12;;;;;;;2.42;1.63;;;20.40;45.30;;;;;;7712834;23;20483;-65
2021/04/05 05:41:24;;;;;;;1.50;1.20;;;20.40;45.40;;;;;;7712583;23;20071;-65
2021/04/05 05:44:43;;;;;;;2.38;1.48;;;20.40;45.30;;;;;;7712574;23;20012;-65
2021/04/05 05:48:05;;;;;;;1.52;1.15;;;20.40;45.40;;;;;;7712588;23;20103;-65
2021/04/05 05:51:20;;;;;;;2.00;1.40;;;20.40;45.40;;;;;;7711954;23;20091;-65
2021/04/05 05:54:55;;;;;;;1.80;1.40;;;20.40;45.30;;;;;;7711288;23;20401;-65
2021/04/05 05:58:11;;;;;;;1.70;1.30;;;20.40;45.30;;;;;;7711507;23;20393;-65
2021/04/05 06:01:38;;;;;;;2.15;1.63;;;20.40;45.30;;;;;;7713166;23;20067;-65
2021/04/05 06:05:01;;;;;;;3.20;1.65;;;20.40;45.30;;;;;;7714642;23;20059;-65
2021/04/05 06:08:35;;;;;;;1.95;1.60;;;20.40;45.30;;;;;;7714388;23;20082;-65
2021/04/05 06:11:51;;;;;;;2.00;1.63;;;20.40;45.30;;;;;;7714207;23;20008;-65
2021/04/05 06:15:27;;;;;;;1.85;1.30;;;20.40;45.30;;;;;;7713988;23;20005;-64
2021/04/05 06:18:48;;;;;;;;;;;20.40;45.30;;;;;;7714666;23;20486;-65
2021/04/05 06:22:25;;;;;;;1.90;1.60;;;20.40;45.30;;;;;;7714020;23;20331;-65
2021/04/05 06:25:47;;;;;;;1.80;1.48;;;20.40;45.30;;;;;;7706654;23;20011;-65
2021/04/05 06:29:03;;;;;;;4.05;1.85;;;20.40;45.30;;;;;;7708281;23;20012;-65
2021/04/05 06:32:19;;;;;;;;;;;20.40;45.30;;;;;;7711429;23;20001;-65
2021/04/05 06:35:54;;;;;;;3.58;2.05;;;20.30;45.10;;;;;;7711980;23;19899;-65
2021/04/05 06:39:07;;;;;;;2.13;1.70;;;20.40;45.30;;;;;;7711817;23;20009;-64
2021/04/05 06:42:39;;;;;;;6.85;1.73;;;20.40;45.60;;;;;;7708714;23;20416;-64
2021/04/05 06:45:55;;;;;;;5.85;1.67;;;20.40;45.30;;;;;;7673832;23;20008;-65
2021/04/05 06:49:33;;;;;;;2.78;1.83;;;20.40;45.10;;;;;;7710405;23;20066;-65
2021/04/05 06:52:42;;;;;;;4.72;1.98;;;20.40;45.00;;;;;;7710156;23;20701;-65
2021/04/05 06:55:45;;;;;;;4.20;2.17;;;20.40;45.20;;;;;;7710937;23;20084;-65
2021/04/05 06:59:30;;;;;;;3.15;1.60;;;20.40;45.10;;;;;;7709971;23;20076;-65
2021/04/05 07:03:27;;;;;;;4.03;1.95;;;20.40;45.10;;;;;;7688006;23;20113;-65
2021/04/05 07:06:49;;;;;;;3.03;1.80;;;20.40;45.10;;;;;;7609425;23;20421;-65
2021/04/05 07:10:02;;;;;;;6.72;2.40;;;20.40;45.00;;;;;;7710963;23;20112;-65
2021/04/05 07:13:33;;;;;;;2.25;1.85;;;20.40;45.00;;;;;;7711523;23;20005;-65
2021/04/05 07:16:56;;;;;;;5.75;2.03;;;20.40;45.70;;;;;;7690275;23;20008;-65
2021/04/05 07:20:07;;;;;;;2.75;2.00;;;20.40;45.10;;;;;;7711353;23;20074;-65
2021/04/05 07:23:38;;;;;;;4.97;2.20;;;20.40;45.10;;;;;;7710273;23;20027;-65
2021/04/05 07:27:04;;;;;;;3.85;2.08;;;20.40;45.00;;;;;;7710829;23;20009;-65
2021/04/05 07:30:17;;;;;;;4.10;1.95;;;20.40;45.00;;;;;;7710521;23;20459;-65
2021/04/05 07:33:38;;;;;;;3.33;2.17;;;20.40;45.10;;;;;;7711484;23;20450;-65
2021/04/05 07:36:46;;;;;;;4.88;2.08;;;20.40;45.20;;;;;;7710512;23;20008;-65
2021/04/05 07:39:57;;;;;;;3.15;1.83;;;20.40;45.20;;;;;;7711438;23;20411;-65
2021/04/05 07:43:06;;;;;;;2.88;1.90;;;20.40;45.30;;;;;;7710737;23;20005;-64
2021/04/05 07:46:22;;;;;;;4.03;2.10;;;20.40;45.20;;;;;;7710948;23;20900;-65
2021/04/05 07:49:31;;;;;;;;;;;20.40;45.20;;;;;;7711064;23;20067;-65
2021/04/05 07:52:48;;;;;;;3.95;1.90;;;20.40;45.20;;;;;;7711568;23;19900;-65
2021/04/05 07:55:49;;;;;;;2.13;1.70;;;20.40;45.30;;;;;;7712172;23;20009;-65
2021/04/05 07:59:16;;;;;;;3.45;1.80;;;20.40;45.40;;;;;;7712162;23;20082;-64
2021/04/05 08:02:54;;;;;;;4.40;1.85;;;20.40;45.30;;;;;;7712738;23;20004;-65
2021/04/05 08:06:04;;;;;;;2.78;1.70;;;20.40;45.40;;;;;;7712018;23;20047;-65
2021/04/05 08:09:09;;;;;;;4.25;2.25;;;20.40;45.30;;;;;;7713816;23;20019;-65
2021/04/05 08:12:41;;;;;;;3.57;1.90;;;20.40;45.50;;;;;;7714870;23;20004;-65
2021/04/05 08:16:03;;;;;;;4.47;1.70;;;20.40;45.40;;;;;;7714653;23;20001;-65
2021/04/05 08:19:16;;;;;;;2.83;1.80;;;20.40;45.50;;;;;;7715797;23;20013;-65
2021/04/05 08:22:39;;;;;;;4.35;1.90;;;20.40;45.50;;;;;;7715558;23;20468;-65
2021/04/05 08:25:59;;;;;;;2.88;1.90;;;20.40;45.60;;;;;;7715485;23;20005;-65
2021/04/05 08:29:16;;;;;;;4.13;1.67;;;20.40;45.50;;;;;;7715078;23;20567;-65
2021/04/05 08:32:30;;;;;;;6.93;1.77;;;20.40;45.50;;;;;;7715797;23;20005;-65
2021/04/05 08:35:49;;;;;;;3.88;1.83;;;20.40;45.50;;;;;;7715348;23;20070;-65
2021/04/05 08:39:04;;;;;;;2.88;1.77;;;20.40;46.30;;;;;;7714814;23;20448;-65
2021/04/05 08:42:30;;;;;;;3.15;1.70;;;20.40;45.60;;;;;;7715195;23;20004;-65
2021/04/05 08:45:37;;;;;;;4.32;1.67;;;20.40;45.60;;;;;;7715060;23;20019;-65
2021/04/05 08:48:41;;;;;;;3.83;1.80;;;20.40;45.60;;;;;;7714606;23;20048;-65
2021/04/05 08:51:42;;;;;;;4.20;1.70;;;20.40;45.70;;;;;;7714962;23;20084;-65
2021/04/05 08:54:45;;;;;;;2.25;1.55;;;20.40;45.60;;;;;;7714749;23;20436;-65
2021/04/05 08:57:55;;;;;;;2.85;1.80;;;20.40;45.70;;;;;;7714736;23;20329;-65
2021/04/05 09:00:59;;;;;;;2.42;1.77;;;20.40;45.70;;;;;;7714925;23;20004;-65
2021/04/05 09:04:01;;;;;;;2.28;1.60;;;20.40;45.80;;;;;;7714563;23;20001;-65
2021/04/05 09:07:09;;;;;;;2.78;1.50;;;20.40;45.70;;;;;;7715365;23;20087;-66
2021/04/05 09:10:10;;;;;;;3.03;1.58;;;20.40;45.70;;;;;;7714475;23;20012;-65
2021/04/05 09:13:16;;;;;;;2.15;1.67;;;20.40;45.70;;;;;;7714900;23;20011;-64
2021/04/05 09:16:48;;;;;;;2.72;1.77;;;20.40;45.70;;;;;;7714497;23;20080;-65
2021/04/05 09:20:22;;;;;;;2.00;1.48;;;20.40;45.70;;;;;;7714433;23;20001;-65
2021/04/05 09:23:54;;;;;;;2.20;1.27;;;20.40;45.70;;;;;;7714614;23;20001;-65
2021/04/05 09:26:58;;;;;;;4.78;1.60;;;20.40;45.70;;;;;;7714729;23;20000;-65
2021/04/05 09:30:31;;;;;;;2.80;1.40;;;20.40;45.80;;;;;;7714616;23;20009;-65
2021/04/05 09:33:57;;;;;;;2.80;1.30;;;20.30;45.70;;;;;;7714623;23;20066;-65
2021/04/05 09:37:09;;;;;;;1.85;1.30;;;20.40;45.70;;;;;;7714492;23;20031;-65
2021/04/05 09:40:40;;;;;;;2.40;1.25;;;20.40;45.70;;;;;;7714381;23;20027;-65
2021/04/05 09:43:49;;;;;;;1.40;1.20;;;20.30;45.60;;;;;;7714383;23;20008;-65
2021/04/05 09:47:17;;;;;;;1.80;1.20;;;20.40;45.70;;;;;;7714423;23;20105;-65
2021/04/05 09:50:50;;;;;;;1.92;1.00;;;20.40;45.60;;;;;;7713914;23;20511;-65
2021/04/05 09:54:13;;;;;;;3.15;1.40;;;20.40;45.80;;;;;;7714460;23;20328;-64
2021/04/05 09:57:39;;;;;;;1.33;1.10;;;20.40;45.80;;;;;;7714766;23;20111;-65
2021/04/05 10:00:46;;;;;;;1.73;1.20;;;20.40;45.70;;;;;;7714023;23;20054;-65
2021/04/05 10:03:50;;;;;;;1.98;1.33;;;20.40;45.70;;;;;;7714390;23;20009;-65
2021/04/05 10:06:54;;;;;;;2.70;1.30;;;20.40;45.70;;;;;;7714142;23;20004;-65
2021/04/05 10:09:57;;;;;;;1.30;1.00;;;20.30;45.60;;;;;;7714013;23;20460;-66
2021/04/05 10:13:03;;;;;;;1.52;0.93;;;20.40;45.80;;;;;;7713897;23;20001;-65
2021/04/05 10:16:04;;;;;;;1.20;1.00;;;20.40;45.70;;;;;;7713926;23;20433;-65
2021/04/05 10:19:10;;;;;;;1.55;0.90;;;20.40;45.70;;;;;;7713838;23;20000;-65
2021/04/05 10:22:18;;;;;;;1.52;1.20;;;20.40;45.80;;;;;;7713976;23;20013;-65
2021/04/05 10:25:24;;;;;;;1.40;1.00;;;20.30;45.70;;;;;;7713882;23;20617;-65
2021/04/05 10:28:29;;;;;;;1.65;1.00;;;20.40;45.70;;;;;;7713923;23;20144;-65
2021/04/05 10:31:30;;;;;;;;;;;20.40;45.80;;;;;;7702042;23;20024;-65
2021/04/05 10:34:34;;;;;;;7.40;1.25;;;20.40;45.70;;;;;;7711283;23;20248;-65
2021/04/05 10:37:40;;;;;;;6.63;1.30;;;20.40;45.90;;;;;;7712338;23;20009;-65
2021/04/05 10:40:42;;;;;;;1.77;0.80;;;20.40;45.80;;;;;;7711709;23;20339;-65
2021/04/05 10:44:04;;;;;;;2.83;1.02;;;20.40;45.80;;;;;;7711782;23;20109;-64
2021/04/05 10:47:14;;;;;;;3.90;1.05;;;20.40;45.90;;;;;;7711538;23;20005;-65
2021/04/05 10:50:16;;;;;;;1.08;0.70;;;20.30;45.80;;;;;;7711222;23;20028;-65
2021/04/05 10:53:18;;;;;;;2.95;0.77;;;20.40;45.90;;;;;;7712039;23;20009;-65
2021/04/05 10:56:23;;;;;;;2.15;0.80;;;20.40;45.90;;;;;;7711004;23;20058;-65
2021/04/05 10:59:43;;;;;;;;;;;20.40;45.90;;;;;;7712306;23;20001;-65
2021/04/05 11:02:53;;;;;;;0.90;0.73;;;20.40;45.90;;;;;;7711655;23;19918;-65
2021/04/05 11:06:00;;;;;;;1.58;0.95;;;20.40;46.00;;;;;;7711426;23;20028;-65
2021/04/05 11:09:05;;;;;;;1.48;0.80;;;20.40;46.00;;;;;;7711241;23;20008;-65
2021/04/05 11:12:08;;;;;;;1.23;0.90;;;20.40;46.00;;;;;;7711806;23;20040;-65
2021/04/05 11:15:14;;;;;;;1.58;1.20;;;20.40;46.00;;;;;;7711394;23;20027;-65
2021/04/05 11:18:18;;;;;;;1.23;0.70;;;20.40;45.90;;;;;;7711547;23;20037;-64
2021/04/05 11:21:23;;;;;;;2.03;1.00;;;20.40;46.00;;;;;;7710529;23;20011;-65
2021/04/05 11:24:30;;;;;;;2.03;0.85;;;20.40;45.90;;;;;;7711222;23;20336;-65
2021/04/05 11:27:37;;;;;;;0.95;0.70;;;20.40;46.00;;;;;;7711422;23;20079;-65
2021/04/05 11:30:39;;;;;;;1.35;0.90;;;20.40;46.00;;;;;;7710943;23;20009;-65
2021/04/05 11:33:49;;;;;;;1.88;1.08;;;20.40;46.00;;;;;;7710596;23;20005;-65
2021/04/05 11:36:52;;;;;;;1.73;0.55;;;20.40;46.00;;;;;;7710999;23;20000;-65
2021/04/05 11:40:20;;;;;;;2.83;0.90;;;20.40;46.70;;;;;;7711517;23;20001;-65
2021/04/05 11:43:26;;;;;;;1.77;0.70;;;20.40;45.90;;;;;;7712129;23;20004;-64
2021/04/05 11:46:29;;;;;;;1.10;0.70;;;20.40;46.10;;;;;;7713269;23;20004;-65
2021/04/05 11:49:32;;;;;;;1.13;0.70;;;20.30;46.00;;;;;;7713923;23;20009;-65
2021/04/05 11:52:40;;;;;;;0.75;0.65;;;20.40;45.90;;;;;;7713727;23;20523;-64
2021/04/05 11:55:42;;;;;;;1.02;0.60;;;20.40;46.00;;;;;;7714215;23;20341;-65
2021/04/05 11:59:09;;;;;;;1.35;0.60;;;20.40;46.00;;;;;;7712536;23;20005;-64
2021/04/05 12:02:20;;;;;;;0.50;0.40;;;20.40;45.80;;;;;;7712497;23;20301;-65
2021/04/05 12:05:31;;;;;;;1.33;0.70;;;20.30;45.60;;;;;;7713487;23;20009;-65
2021/04/05 12:09:07;;;;;;;0.65;0.52;;;20.40;45.80;;;;;;7712176;23;20080;-65
2021/04/05 12:12:16;;;;;;;0.70;0.70;;;20.40;45.80;;;;;;7710500;23;20008;-65
2021/04/05 12:15:20;;;;;;;1.23;0.70;;;20.30;45.80;;;;;;7713551;23;20005;-65
2021/04/05 12:18:23;;;;;;;0.63;0.50;;;20.40;45.80;;;;;;7711346;23;20058;-65
2021/04/05 12:21:29;;;;;;;0.73;0.50;;;20.30;45.70;;;;;;7709795;23;20024;-64
2021/04/05 12:24:33;;;;;;;0.73;0.60;;;20.40;45.80;;;;;;7709308;23;20087;-65
2021/04/05 12:27:37;;;;;;;1.02;0.60;;;20.40;45.80;;;;;;7710708;23;20011;-64
2021/04/05 12:30:40;;;;;;;0.50;0.40;;;20.40;45.80;;;;;;7711181;23;20019;-65
2021/04/05 12:33:41;;;;;;;1.38;0.70;;;20.40;45.80;;;;;;7710503;23;20013;-64
2021/04/05 12:36:43;;;;;;;1.15;0.50;;;20.40;45.80;;;;;;7710733;23;20005;-64
2021/04/05 12:39:49;;;;;;;1.05;0.63;;;20.40;45.80;;;;;;7710694;23;20008;-65
2021/04/05 12:42:50;;;;;;;0.82;0.60;;;20.40;45.80;;;;;;7710166;23;20340;-64
2021/04/05 12:45:56;;;;;;;0.65;0.50;;;20.40;45.80;;;;;;7710664;23;20005;-65
2021/04/05 12:48:59;;;;;;;0.50;0.50;;;20.40;45.80;;;;;;7709720;23;20016;-64
2021/04/05 12:52:05;;;;;;;1.55;0.70;;;20.40;45.90;;;;;;7710994;23;20122;-64
2021/04/05 12:55:17;;;;;;;1.35;0.70;;;20.40;45.80;;;;;;7709223;23;20039;-65
2021/04/05 12:58:24;;;;;;;0.60;0.50;;;20.30;46.40;;;;;;7710650;23;20031;-64
2021/04/05 13:01:31;;;;;;;0.73;0.57;;;20.40;45.80;;;;;;7706943;23;20784;-65
2021/04/05 13:04:35;;;;;;;1.08;0.50;;;20.40;45.80;;;;;;7709639;23;20079;-65
2021/04/05 13:08:25;;;;;;;0.98;0.40;;;20.40;46.70;;;;;;7710883;23;20008;-64
2021/04/05 13:11:35;;;;;;;0.90;0.60;;;20.40;46.00;;;;;;7594095;23;20218;-65
2021/04/05 13:14:41;;;;;;;1.00;0.45;;;20.40;45.80;;;;;;7601057;23;20105;-65
2021/04/05 13:17:47;;;;;;;0.80;0.60;;;20.40;46.00;;;;;;7710705;23;20016;-65
2021/04/05 13:20:54;;;;;;;1.20;0.43;;;20.40;45.80;;;;;;7710241;23;20021;-64
2021/04/05 13:23:57;;;;;;;3.20;0.45;;;20.40;45.90;;;;;;7709473;23;20004;-64
2021/04/05 13:27:00;;;;;;;1.42;0.52;;;20.40;45.90;;;;;;7708206;23;20020;-64
2021/04/05 13:30:12;;;;;;;2.45;0.50;;;20.40;45.90;;;;;;7708442;23;20024;-64
2021/04/05 13:33:14;;;;;;;2.03;0.45;;;20.40;45.80;;;;;;7709835;23;20336;-64
2021/04/05 13:36:16;;;;;;;2.70;0.50;;;20.40;45.90;;;;;;7709766;23;20004;-65
2021/04/05 13:39:23;;;;;;;1.20;0.50;;;20.40;45.80;;;;;;7709050;23;20004;-64
2021/04/05 13:42:25;;;;;;;1.02;0.60;;;20.40;45.90;;;;;;7710622;23;20001;-64
2021/04/05 13:45:37;;;;;;;3.65;1.02;;;20.40;45.80;;;;;;7708795;23;20007;-64
2021/04/05 13:48:40;;;;;;;1.20;0.70;;;20.40;45.80;;;;;;7709202;23;20107;-65
2021/04/05 13:51:45;;;;;;;1.25;0.30;;;20.40;45.80;;;;;;7709125;23;20000;-65
2021/04/05 13:54:52;;;;;;;6.80;0.77;;;20.40;45.80;;;;;;7708870;23;20012;-65
2021/04/05 13:57:56;;;;;;;2.20;0.70;;;20.40;45.80;;;;;;7709680;23;20444;-65
2021/04/05 14:01:04;;;;;;;3.80;0.40;;;20.40;45.80;;;;;;7709350;23;20039;-64
2021/04/05 14:04:06;;;;;;;2.70;0.40;;;20.40;45.90;;;;;;7708435;23;20009;-65
2021/04/05 14:07:07;;;;;;;2.17;0.40;;;20.40;45.80;;;;;;7709911;23;20026;-65
2021/04/05 14:10:08;;;;;;;1.05;0.40;;;20.40;45.80;;;;;;7709280;23;20012;-64
2021/04/05 14:13:11;;;;;;;3.00;0.40;;;20.40;45.80;;;;;;7710058;23;20008;-65
2021/04/05 14:16:40;;;;;;;1.40;0.57;;;20.40;45.80;;;;;;7707723;23;20302;-65
2021/04/05 14:19:52;;;;;;;2.75;0.50;;;20.40;46.50;;;;;;7709086;23;20005;-65
2021/04/05 14:23:12;;;;;;;2.90;0.38;;;20.30;45.60;;;;;;7709807;23;20013;-65
2021/04/05 14:26:13;;;;;;;0.95;0.50;;;20.40;45.60;;;;;;7708063;23;20008;-65
2021/04/05 14:29:19;;;;;;;2.15;0.40;;;20.40;45.80;;;;;;7709040;23;20397;-65
2021/04/05 14:32:27;;;;;;;1.27;0.30;;;20.40;45.50;;;;;;7710416;23;20004;-65
2021/04/05 14:35:37;;;;;;;0.90;0.30;;;20.40;45.50;;;;;;7708561;23;20858;-65
2021/04/05 14:38:42;;;;;;;5.13;0.50;;;20.40;45.60;;;;;;7708907;23;20463;-64
2021/04/05 14:41:51;;;;;;;1.67;0.60;;;20.40;45.50;;;;;;7708801;23;20032;-64
2021/04/05 14:44:59;;;;;;;2.03;0.50;;;20.40;45.40;;;;;;7709095;23;20368;-63
2021/04/05 14:48:02;;;;;;;1.23;0.40;;;20.40;45.50;;;;;;7709110;23;20051;-65
2021/04/05 14:51:05;;;;;;;1.35;0.40;;;20.40;45.30;;;;;;7707681;23;20069;-65
2021/04/05 14:54:08;;;;;;;0.88;0.30;;;20.40;45.40;;;;;;7709190;23;20031;-64
2021/04/05 14:57:10;;;;;;;4.30;0.50;;;20.40;45.50;;;;;;7707815;23;20439;-64
2021/04/05 15:00:16;;;;;;;1.67;0.50;;;20.40;45.60;;;;;;7709301;23;20005;-65
2021/04/05 15:03:23;;;;;;;6.20;0.50;;;20.40;45.50;;;;;;7707761;23;20015;-64
2021/04/05 15:06:25;;;;;;;0.60;0.30;;;20.40;46.30;;;;;;7708402;23;20005;-65
2021/04/05 15:09:31;;;;;;;2.88;0.65;;;20.40;45.80;;;;;;7708601;23;20444;-65
2021/04/05 15:12:34;;;;;;;1.38;0.55;;;20.40;45.40;;;;;;7708891;23;20080;-65
2021/04/05 15:15:39;;;;;;;2.17;0.38;;;20.40;45.50;;;;;;7707246;23;20030;-65
2021/04/05 15:18:40;;;;;;;;;;;20.40;45.50;;;;;;7709566;23;20329;-65
2021/04/05 15:21:42;;;;;;;0.52;0.43;;;20.40;45.50;;;;;;7706541;23;19908;-65
2021/04/05 15:24:47;;;;;;;1.15;0.50;;;20.30;45.50;;;;;;7708868;23;20012;-64
2021/04/05 15:27:55;;;;;;;1.00;0.55;;;20.40;45.60;;;;;;7707267;23;20437;-65
2021/04/05 15:30:57;;;;;;;4.78;0.60;;;20.40;45.50;;;;;;7708854;23;20419;-65
2021/04/05 15:34:05;;;;;;;5.38;0.77;;;20.40;45.40;;;;;;7708548;23;20511;-65
2021/04/05 15:37:16;;;;;;;2.88;0.60;;;20.40;45.50;;;;;;7708645;23;20504;-64
2021/04/05 15:40:27;;;;;;;6.15;0.70;;;20.40;45.50;;;;;;7707957;23;20459;-63
2021/04/05 15:43:34;;;;;;;6.55;0.80;;;20.40;45.60;;;;;;7708191;23;20099;-65
2021/04/05 15:47:07;;;;;;;10.73;0.88;;;20.40;45.70;;;;;;7707756;23;20405;-65
2021/04/05 15:50:26;;;;;;;11.00;1.02;;;20.40;45.70;;;;;;7708220;23;20066;-64
2021/04/05 15:53:29;;;;;;;5.15;1.00;;;20.40;45.60;;;;;;7708096;23;19996;-64
2021/04/05 15:56:46;;;;;;;6.57;0.90;;;20.40;45.90;;;;;;7708876;23;20005;-65
2021/04/05 16:00:07;;;;;;;9.07;0.90;;;20.40;45.60;;;;;;7708743;23;20163;-65
2021/04/05 16:03:12;;;;;;;18.63;1.15;;;20.40;45.60;;;;;;7708721;23;20314;-65
2021/04/05 16:06:27;;;;;;;6.85;0.70;;;20.40;46.20;;;;;;7707860;23;20328;-65
2021/04/05 16:09:37;;;;;;;8.90;0.55;;;20.40;45.60;;;;;;7708350;23;20074;-65
2021/04/05 16:12:43;;;;;;;4.30;0.65;;;20.40;45.40;;;;;;7708488;23;20347;-65
2021/04/05 16:15:47;;;;;;;6.47;0.82;;;20.40;45.40;;;;;;7706345;23;20043;-64
2021/04/05 16:18:50;;;;;;;3.85;0.45;;;20.40;45.60;;;;;;7706295;23;20032;-65
2021/04/05 16:21:56;;;;;;;7.75;0.60;;;20.40;45.50;;;;;;7706291;23;20060;-65
2021/04/05 16:25:01;;;;;;;4.00;0.50;;;20.40;45.50;;;;;;7706918;23;20028;-65